Weather at General Manuel Carlos Piar International Airport

Public forecast

Using degrees Celsius for public forecast. Weather courtesy of forecast.io.

Current aviation weather report (METAR) for General Manuel Carlos Piar International Airport

Report is more than 6 hours old.

2022/12/05 06:03 (retrieved 9 hours ago)

SVPR 050603Z AUTO 08008KT NCD 22/20 Q1010

Aviation forecast (TAF) for General Manuel Carlos Piar International Airport

Forecast is more than 12 hours old.

2022/12/04 12:00 (retrieved 1 day ago)

TAF SVPR 041000Z 0412/0512 06004KT 9999 SCT016 TX32/0419Z TN22/0408Z BECMG 0419/0423 09010KT 9999 SCT016 BKN100